createdAt,value
2018-03-06T00:00:11.033Z,98208.88
2018-03-06T00:02:39.368Z,98198.98
2018-03-06T00:05:07.801Z,98204.29
2018-03-06T00:07:36.139Z,98196.09
2018-03-06T00:10:04.495Z,98190.58
2018-03-06T00:12:32.845Z,98192.67
2018-03-06T00:15:01.154Z,98191.11
2018-03-06T00:17:29.491Z,98194.25
2018-03-06T00:19:57.845Z,98190.58
2018-03-06T00:22:26.191Z,98190.19
2018-03-06T00:24:54.530Z,98185.41
2018-03-06T00:27:22.865Z,98187.13
2018-03-06T00:29:51.211Z,98178.05
2018-03-06T00:32:19.594Z,98186.63
2018-03-06T00:34:47.919Z,98180.68
2018-03-06T00:37:16.258Z,98180.04
2018-03-06T00:39:44.582Z,98182.53
2018-03-06T00:42:12.966Z,98181.75
2018-03-06T00:44:41.292Z,98183.59
2018-03-06T00:47:09.638Z,98177.80
2018-03-06T00:49:38.024Z,98174.23
2018-03-06T00:52:06.353Z,98169.22
2018-03-06T00:54:34.746Z,98169.89
2018-03-06T00:57:03.069Z,98167.25
2018-03-06T00:59:31.408Z,98166.33
2018-03-06T01:01:59.732Z,98160.14
2018-03-06T01:04:28.060Z,98173.20
2018-03-06T01:06:56.381Z,98159.64
2018-03-06T01:09:24.717Z,98157.39
2018-03-06T01:11:53.064Z,98159.64
2018-03-06T01:14:21.412Z,98157.14
2018-03-06T01:16:49.709Z,98151.88
2018-03-06T01:19:18.208Z,98143.43
2018-03-06T01:21:46.567Z,98144.36
2018-03-06T01:24:14.916Z,98139.06
2018-03-06T01:26:43.241Z,98132.08
2018-03-06T01:29:11.597Z,98138.66
2018-03-06T01:31:39.934Z,98135.92
2018-03-06T01:34:08.272Z,98133.28
2018-03-06T01:36:36.691Z,98129.86
2018-03-06T01:39:05.035Z,98138.55
2018-03-06T01:41:33.348Z,98117.86
2018-03-06T01:44:01.753Z,98117.86
2018-03-06T01:46:30.072Z,98128.94
2018-03-06T01:48:58.414Z,98124.98
2018-03-06T01:51:26.737Z,98115.61
2018-03-06T01:53:55.056Z,98121.67
2018-03-06T01:56:23.381Z,98117.21
2018-03-06T01:58:51.707Z,98107.98
2018-03-06T02:01:20.162Z,98102.31
2018-03-06T02:03:48.594Z,98096.37
2018-03-06T02:06:17.003Z,98094.01
2018-03-06T02:08:45.360Z,98092.94
2018-03-06T02:11:13.680Z,98095.05
2018-03-06T02:13:42.032Z,98094.80
2018-03-06T02:16:10.368Z,98094.39
2018-03-06T02:18:38.708Z,98091.76
2018-03-06T02:21:07.064Z,98085.56
2018-03-06T02:23:35.402Z,98086.63
2018-03-06T02:26:03.729Z,98083.99
2018-03-06T02:28:32.223Z,98082.39
2018-03-06T02:31:00.578Z,98070.80
2018-03-06T02:33:28.894Z,98069.87
2018-03-06T02:35:57.230Z,98067.63
2018-03-06T02:38:25.578Z,98059.06
2018-03-06T02:40:53.929Z,98064.84
2018-03-06T02:43:22.265Z,98055.63
2018-03-06T02:45:54.234Z,98051.81
2018-03-06T02:48:22.593Z,98049.96
2018-03-06T02:50:50.938Z,98048.25
2018-03-06T02:53:19.262Z,98052.45
2018-03-06T02:55:47.689Z,98041.40
2018-03-06T02:58:16.012Z,98038.87
2018-03-06T03:00:44.368Z,98038.87
2018-03-06T03:03:12.697Z,98039.92
2018-03-06T03:05:41.057Z,98035.33
2018-03-06T03:08:09.501Z,98034.25
2018-03-06T03:10:37.840Z,98035.72
2018-03-06T03:13:06.202Z,98025.02
2018-03-06T03:15:34.551Z,98026.09
2018-03-06T03:18:02.879Z,98025.95
2018-03-06T03:20:31.234Z,98017.80
2018-03-06T03:22:59.606Z,98018.72
2018-03-06T03:25:27.995Z,98013.56
2018-03-06T03:27:56.346Z,98017.28
2018-03-06T03:30:24.697Z,98019.37
2018-03-06T03:32:53.060Z,98016.05
2018-03-06T03:35:21.450Z,98018.59
2018-03-06T03:37:49.787Z,98017.92
2018-03-06T03:40:18.143Z,98018.98
2018-03-06T03:42:46.747Z,98021.98
2018-03-06T03:45:15.065Z,98017.64
2018-03-06T03:47:43.420Z,98011.59
2018-03-06T03:50:11.742Z,98005.52
2018-03-06T03:52:40.107Z,98008.79
2018-03-06T03:55:08.429Z,98004.97
2018-03-06T03:57:36.841Z,97999.55
2018-03-06T04:00:05.231Z,97998.50
2018-03-06T04:02:33.586Z,97991.75
2018-03-06T04:05:01.988Z,97988.19
2018-03-06T04:07:30.368Z,97993.20
2018-03-06T04:09:58.748Z,97986.86
2018-03-06T04:12:27.074Z,97996.23
2018-03-06T04:14:55.412Z,98001.37
2018-03-06T04:17:23.748Z,97995.47
2018-03-06T04:19:52.180Z,97998.34
2018-03-06T04:22:20.623Z,97993.35
2018-03-06T04:24:48.983Z,97993.74
2018-03-06T04:27:17.466Z,97996.25
2018-03-06T04:29:45.891Z,97990.84
2018-03-06T04:32:14.285Z,97986.49
2018-03-06T04:34:42.789Z,97986.34
2018-03-06T04:37:11.192Z,97983.44
2018-03-06T04:39:39.526Z,97983.58
2018-03-06T04:42:07.869Z,97979.08
2018-03-06T04:44:36.255Z,97979.20
2018-03-06T04:47:04.585Z,97982.09
2018-03-06T04:49:32.902Z,97976.82
2018-03-06T04:52:01.325Z,97978.81
2018-03-06T04:54:29.648Z,97979.33
2018-03-06T04:56:58.015Z,97979.86
2018-03-06T04:59:26.335Z,97980.77
2018-03-06T05:01:54.663Z,97977.62
2018-03-06T05:04:22.985Z,97976.68
2018-03-06T05:06:51.643Z,97972.84
2018-03-06T05:09:20.732Z,97973.50
2018-03-06T05:11:49.049Z,97967.05
2018-03-06T05:14:17.393Z,97971.13
2018-03-06T05:16:45.808Z,97966.53
2018-03-06T05:19:14.148Z,97974.95
2018-03-06T05:21:42.589Z,97972.28
2018-03-06T05:24:11.091Z,97970.05
2018-03-06T05:26:39.527Z,97966.73
2018-03-06T05:29:07.878Z,97963.53
2018-03-06T05:31:39.829Z,97960.77
2018-03-06T05:34:08.142Z,97964.73
2018-03-06T05:36:36.474Z,97958.94
2018-03-06T05:39:04.831Z,97964.56
2018-03-06T05:41:33.266Z,97953.74
2018-03-06T05:44:01.658Z,97951.91
2018-03-06T05:46:30.038Z,97954.49
2018-03-06T05:48:58.539Z,97951.07
2018-03-06T05:51:26.862Z,97958.83
2018-03-06T05:53:55.243Z,97954.84
2018-03-06T05:56:23.571Z,97948.55
2018-03-06T05:58:52.015Z,97953.03
2018-03-06T06:01:20.341Z,97950.26
2018-03-06T06:03:48.673Z,97948.04
2018-03-06T06:06:17.010Z,97958.44
2018-03-06T06:08:45.340Z,97951.42
2018-03-06T06:11:13.671Z,97947.20
2018-03-06T06:13:42.034Z,97951.41
2018-03-06T06:16:10.401Z,97953.08
2018-03-06T06:18:38.751Z,97951.37
2018-03-06T06:21:07.097Z,97949.40
2018-03-06T06:23:35.455Z,97945.56
2018-03-06T06:26:03.772Z,97943.88
2018-03-06T06:28:32.210Z,97954.16
2018-03-06T06:31:00.606Z,97945.80
2018-03-06T06:33:28.998Z,97937.73
2018-03-06T06:35:57.314Z,97949.06
2018-03-06T06:38:25.679Z,97943.49
2018-03-06T06:40:54.018Z,97940.80
2018-03-06T06:43:22.329Z,97941.44
2018-03-06T06:45:50.710Z,97940.37
2018-03-06T06:48:19.035Z,97935.03
2018-03-06T06:50:47.433Z,97935.31
2018-03-06T06:53:15.757Z,97949.11
2018-03-06T06:55:44.118Z,97935.60
2018-03-06T06:58:12.434Z,97935.45
2018-03-06T07:00:40.756Z,97936.09
2018-03-06T07:03:09.202Z,97931.09
2018-03-06T07:05:37.537Z,97942.30
2018-03-06T07:08:05.860Z,97936.22
2018-03-06T07:10:34.206Z,97929.70
2018-03-06T07:13:02.565Z,97927.66
2018-03-06T07:15:30.954Z,97936.84
2018-03-06T07:17:59.270Z,97934.70
2018-03-06T07:20:27.639Z,97936.27
2018-03-06T07:22:56.048Z,97932.76
2018-03-06T07:25:24.423Z,97943.78
2018-03-06T07:27:52.829Z,97938.98
2018-03-06T07:30:21.169Z,97938.62
2018-03-06T07:32:49.474Z,97935.31
2018-03-06T07:35:17.835Z,97935.25
2018-03-06T07:37:46.194Z,97938.41
2018-03-06T07:40:14.566Z,97929.91
2018-03-06T07:42:42.896Z,97937.48
2018-03-06T07:45:11.221Z,97934.89
2018-03-06T07:47:39.584Z,97934.77
2018-03-06T07:50:08.084Z,97934.92
2018-03-06T07:52:36.495Z,97939.09
2018-03-06T07:55:04.814Z,97942.48
2018-03-06T07:57:33.142Z,97942.45
2018-03-06T08:00:01.469Z,97936.48
2018-03-06T08:02:29.852Z,97941.02
2018-03-06T08:04:58.176Z,97938.88
2018-03-06T08:07:26.505Z,97935.27
2018-03-06T08:09:54.878Z,97926.58
2018-03-06T08:12:23.200Z,97925.63
2018-03-06T08:14:51.752Z,97920.48
2018-03-06T08:17:20.094Z,97920.31
2018-03-06T08:19:48.409Z,97919.77
2018-03-06T08:24:44.141Z,97915.09
2018-03-06T08:27:12.578Z,97916.06
2018-03-06T08:29:40.906Z,97915.44
2018-03-06T08:32:09.276Z,97910.27
2018-03-06T08:34:37.658Z,97918.02
2018-03-06T08:37:05.981Z,97913.03
2018-03-06T08:39:34.318Z,97911.20
2018-03-06T08:42:02.638Z,97914.16
2018-03-06T08:44:30.982Z,97911.94
2018-03-06T08:46:59.301Z,97911.94
2018-03-06T08:49:27.652Z,97904.05
2018-03-06T08:51:55.961Z,97903.48
2018-03-06T08:54:24.295Z,97910.20
2018-03-06T08:56:52.627Z,97905.63
2018-03-06T08:59:21.075Z,97895.63
2018-03-06T09:01:49.386Z,97899.98
2018-03-06T09:04:17.865Z,97899.91
2018-03-06T09:06:46.293Z,97902.98
2018-03-06T09:09:14.624Z,97906.72
2018-03-06T09:11:42.953Z,97895.94
2018-03-06T09:14:11.284Z,97899.03
2018-03-06T09:16:39.609Z,97907.95
2018-03-06T09:19:07.953Z,97900.02
2018-03-06T09:21:36.287Z,97905.68
2018-03-06T09:24:04.618Z,97905.44
2018-03-06T09:26:32.937Z,97900.55
2018-03-06T09:29:01.279Z,97912.33
2018-03-06T09:31:29.594Z,97908.51
2018-03-06T09:33:58.049Z,97903.13
2018-03-06T09:36:26.398Z,97902.94
2018-03-06T09:38:54.705Z,97901.87
2018-03-06T09:41:23.046Z,97902.27
2018-03-06T09:43:51.563Z,97902.19
2018-03-06T09:46:19.913Z,97902.59
2018-03-06T09:48:48.250Z,97905.23
2018-03-06T09:51:16.591Z,97898.45
2018-03-06T09:53:44.922Z,97903.99
2018-03-06T09:56:13.245Z,97899.13
2018-03-06T09:58:41.753Z,97903.30
2018-03-06T10:01:10.173Z,97900.27
2018-03-06T10:03:38.516Z,97907.47
2018-03-06T10:06:06.923Z,97901.53
2018-03-06T10:08:35.268Z,97896.06
2018-03-06T10:11:03.622Z,97895.34
2018-03-06T10:13:31.936Z,97901.84
2018-03-06T10:16:00.271Z,97889.07
2018-03-06T10:18:28.595Z,97894.27
2018-03-06T10:20:57.006Z,97891.11
2018-03-06T10:23:25.381Z,97882.25
2018-03-06T10:25:53.739Z,97883.39
2018-03-06T10:28:22.074Z,97876.09
2018-03-06T10:30:51.038Z,97882.46
2018-03-06T10:33:19.383Z,97878.83
2018-03-06T10:35:47.764Z,97875.25
2018-03-06T10:38:16.377Z,97873.30
2018-03-06T10:40:44.710Z,97874.34
2018-03-06T10:43:13.052Z,97885.31
2018-03-06T10:45:41.378Z,97874.56
2018-03-06T10:48:09.823Z,97869.06
2018-03-06T10:50:38.142Z,97865.97
2018-03-06T10:53:06.471Z,97863.20
2018-03-06T10:55:34.899Z,97859.08
2018-03-06T10:58:03.431Z,97852.16
2018-03-06T11:00:37.495Z,97856.75
2018-03-06T11:03:05.834Z,97849.44
2018-03-06T11:05:34.162Z,97854.88
2018-03-06T11:08:02.499Z,97857.33
2018-03-06T11:10:30.828Z,97849.37
2018-03-06T11:12:59.173Z,97842.05
2018-03-06T11:15:27.575Z,97841.74
2018-03-06T11:17:55.932Z,97841.59
2018-03-06T11:20:24.250Z,97841.75
2018-03-06T11:22:52.642Z,97837.86
2018-03-06T11:25:20.960Z,97837.58
2018-03-06T11:27:49.315Z,97840.58
2018-03-06T11:30:17.910Z,97836.66
2018-03-06T11:32:46.285Z,97837.28
2018-03-06T11:35:14.614Z,97830.86
2018-03-06T11:37:43.027Z,97832.64
2018-03-06T11:40:11.346Z,97830.20
2018-03-06T11:42:39.729Z,97827.95
2018-03-06T11:45:08.179Z,97822.17
2018-03-06T11:47:36.535Z,97821.94
2018-03-06T11:50:05.014Z,97816.83
2018-03-06T11:52:33.370Z,97812.07
2018-03-06T11:55:01.742Z,97804.48
2018-03-06T11:57:30.079Z,97808.44
2018-03-06T11:59:58.419Z,97806.77
2018-03-06T12:02:26.745Z,97802.86
2018-03-06T12:04:55.089Z,97795.79
2018-03-06T12:07:23.501Z,97792.98
2018-03-06T12:09:51.901Z,97798.03
2018-03-06T12:12:20.310Z,97793.06
2018-03-06T12:14:48.671Z,97792.89
2018-03-06T12:17:16.999Z,97793.23
2018-03-06T12:19:45.335Z,97790.42
2018-03-06T12:22:13.664Z,97786.60
2018-03-06T12:24:42.010Z,97789.85
2018-03-06T12:27:10.330Z,97786.50
2018-03-06T12:29:38.685Z,97776.44
2018-03-06T12:32:07.147Z,97784.23
2018-03-06T12:34:35.515Z,97776.98
2018-03-06T12:37:03.842Z,97783.11
2018-03-06T12:39:32.210Z,97782.39
2018-03-06T12:42:01.910Z,97777.16
2018-03-06T12:44:30.236Z,97774.87
2018-03-06T12:46:58.597Z,97772.28
2018-03-06T12:49:26.938Z,97777.16
2018-03-06T12:51:55.295Z,97771.78
2018-03-06T12:54:23.637Z,97769.20
2018-03-06T12:56:52.317Z,97768.64
2018-03-06T12:59:20.670Z,97762.50
2018-03-06T13:01:49.167Z,97758.81
2018-03-06T13:04:17.479Z,97765.25
2018-03-06T13:06:45.815Z,97758.62
2018-03-06T13:09:14.146Z,97756.91
2018-03-06T13:11:42.492Z,97755.03
2018-03-06T13:14:10.803Z,97754.04
2018-03-06T13:16:39.198Z,97757.83
2018-03-06T13:19:07.514Z,97750.88
2018-03-06T13:21:36.042Z,97748.14
2018-03-06T13:24:04.366Z,97747.46
2018-03-06T13:26:32.774Z,97749.78
2018-03-06T13:29:01.092Z,97746.59
2018-03-06T13:31:29.424Z,97746.69
2018-03-06T13:33:58.078Z,97742.66
2018-03-06T13:36:26.410Z,97747.08
2018-03-06T13:38:54.777Z,97749.61
2018-03-06T13:41:23.157Z,97746.92
2018-03-06T13:43:51.494Z,97748.34
2018-03-06T13:46:19.830Z,97750.89
2018-03-06T13:48:48.302Z,97751.72
2018-03-06T13:51:16.622Z,97751.53
2018-03-06T13:53:44.999Z,97746.03
2018-03-06T13:56:13.353Z,97743.28
2018-03-06T13:58:41.701Z,97747.73
2018-03-06T14:01:10.036Z,97741.22
2018-03-06T14:03:38.363Z,97746.13
2018-03-06T14:06:06.780Z,97747.62
2018-03-06T14:08:35.116Z,97744.56
2018-03-06T14:11:03.439Z,97741.95
2018-03-06T14:13:31.785Z,97741.12
2018-03-06T14:16:00.099Z,97740.55
2018-03-06T14:18:28.516Z,97741.98
2018-03-06T14:20:56.830Z,97735.54
2018-03-06T14:23:25.174Z,97741.38
2018-03-06T14:25:53.602Z,97741.49
2018-03-06T14:28:21.949Z,97743.09
2018-03-06T14:30:50.266Z,97739.41
2018-03-06T14:33:18.632Z,97731.45
2018-03-06T14:35:46.980Z,97740.21
2018-03-06T14:38:15.323Z,97738.94
2018-03-06T14:40:43.704Z,97737.78
2018-03-06T14:43:12.153Z,97737.16
2018-03-06T14:45:40.488Z,97735.77
2018-03-06T14:48:08.808Z,97731.84
2018-03-06T14:50:37.220Z,97732.10
2018-03-06T14:53:05.535Z,97728.74
2018-03-06T14:55:33.908Z,97731.28
2018-03-06T14:58:02.286Z,97733.60
2018-03-06T15:00:30.621Z,97730.45
2018-03-06T15:02:58.953Z,97726.72
2018-03-06T15:05:27.309Z,97725.55
2018-03-06T15:07:55.769Z,97725.88
2018-03-06T15:10:24.149Z,97722.06
2018-03-06T15:12:52.490Z,97720.41
2018-03-06T15:15:20.934Z,97727.44
2018-03-06T15:17:49.318Z,97717.41
2018-03-06T15:20:17.655Z,97716.27
2018-03-06T15:22:45.990Z,97716.61
2018-03-06T15:25:14.335Z,97711.67
2018-03-06T15:27:42.668Z,97715.83
2018-03-06T15:30:11.010Z,97714.31
2018-03-06T15:32:39.351Z,97714.56
2018-03-06T15:35:07.736Z,97715.66
2018-03-06T15:37:36.070Z,97716.98
2018-03-06T15:40:04.414Z,97719.59
2018-03-06T15:42:32.749Z,97720.81
2018-03-06T15:45:01.096Z,97720.70
2018-03-06T15:47:29.434Z,97727.85
2018-03-06T15:49:57.768Z,97730.66
2018-03-06T15:52:26.263Z,97731.50
2018-03-06T15:54:54.606Z,97730.27
2018-03-06T15:57:23.016Z,97726.99
2018-03-06T15:59:51.416Z,97733.56
2018-03-06T16:02:19.782Z,97727.70
2018-03-06T16:04:48.126Z,97738.07
2018-03-06T16:07:16.544Z,97736.09
2018-03-06T16:09:44.954Z,97735.08
2018-03-06T16:12:13.626Z,97730.52
2018-03-06T16:14:41.997Z,97732.58
2018-03-06T16:17:10.398Z,97734.60
2018-03-06T16:19:38.749Z,97727.86
2018-03-06T16:22:07.130Z,97735.25
2018-03-06T16:24:35.568Z,97737.21
2018-03-06T16:27:03.940Z,97737.55
2018-03-06T16:29:32.356Z,97736.02
2018-03-06T16:32:00.899Z,97737.91
2018-03-06T16:34:29.234Z,97739.00
2018-03-06T16:36:57.562Z,97744.16
2018-03-06T16:39:25.890Z,97745.57
2018-03-06T16:41:54.218Z,97747.97
2018-03-06T16:44:22.558Z,97746.38
2018-03-06T16:46:50.888Z,97740.89
2018-03-06T16:49:19.306Z,97739.87
2018-03-06T16:51:47.589Z,97746.08
2018-03-06T16:54:15.915Z,97742.30
2018-03-06T16:56:44.309Z,97746.98
2018-03-06T16:59:12.668Z,97746.56
2018-03-06T17:01:48.861Z,97742.78
2018-03-06T17:04:17.277Z,97741.30
2018-03-06T17:06:45.600Z,97739.20
2018-03-06T17:09:13.934Z,97745.51
2018-03-06T17:11:42.366Z,97744.73
2018-03-06T17:14:11.486Z,97742.30
2018-03-06T17:16:39.845Z,97743.20
2018-03-06T17:19:08.184Z,97747.02
2018-03-06T17:21:36.501Z,97746.59
2018-03-06T17:24:04.833Z,97751.78
2018-03-06T17:26:33.162Z,97743.86
2018-03-06T17:29:01.506Z,97748.72
2018-03-06T17:31:29.909Z,97742.63
2018-03-06T17:33:58.454Z,97747.01
2018-03-06T17:36:26.775Z,97742.80
2018-03-06T17:38:55.136Z,97754.16
2018-03-06T17:41:23.479Z,97750.82
2018-03-06T17:43:51.891Z,97743.89
2018-03-06T17:46:20.259Z,97749.50
2018-03-06T17:48:48.589Z,97744.67
2018-03-06T17:51:16.941Z,97744.67
2018-03-06T17:53:45.324Z,97741.31
2018-03-06T17:56:13.712Z,97749.34
2018-03-06T17:58:41.994Z,97748.84
2018-03-06T18:01:10.404Z,97752.69
2018-03-06T18:03:38.793Z,97747.73
2018-03-06T18:06:07.202Z,97747.67
2018-03-06T18:08:35.526Z,97750.44
2018-03-06T18:11:03.878Z,97744.97
2018-03-06T18:13:32.230Z,97743.80
2018-03-06T18:16:00.562Z,97747.97
2018-03-06T18:18:28.882Z,97745.72
2018-03-06T18:20:57.251Z,97744.45
2018-03-06T18:23:25.568Z,97737.61
2018-03-06T18:25:53.906Z,97742.11
2018-03-06T18:28:22.268Z,97737.52
2018-03-06T18:30:50.622Z,97741.02
2018-03-06T18:33:18.946Z,97734.97
2018-03-06T18:35:47.370Z,97739.05
2018-03-06T18:38:15.786Z,97735.48
2018-03-06T18:40:44.129Z,97734.52
2018-03-06T18:43:12.549Z,97730.95
2018-03-06T18:45:40.954Z,97740.16
2018-03-06T18:48:09.279Z,97729.92
2018-03-06T18:50:51.207Z,97729.87
2018-03-06T18:53:19.513Z,97731.97
2018-03-06T18:55:47.835Z,97726.53
2018-03-06T18:58:16.547Z,97723.33
2018-03-06T19:01:05.529Z,97718.56
2018-03-06T19:03:45.734Z,97718.52
2018-03-06T19:06:24.004Z,97729.03
2018-03-06T19:08:52.338Z,97727.27
2018-03-06T19:11:20.752Z,97725.78
2018-03-06T19:13:49.039Z,97723.11
2018-03-06T19:16:17.521Z,97717.70
2018-03-06T19:18:45.851Z,97721.28
2018-03-06T19:21:14.266Z,97718.62
2018-03-06T19:23:42.656Z,97722.02
2018-03-06T19:26:10.985Z,97716.38
2018-03-06T19:28:39.318Z,97717.42
2018-03-06T19:31:07.634Z,97713.78
2018-03-06T19:33:36.017Z,97712.94
2018-03-06T19:36:04.343Z,97712.61
2018-03-06T19:38:32.712Z,97711.75
2018-03-06T19:41:01.068Z,97711.48
2018-03-06T19:43:29.428Z,97707.91
2018-03-06T19:45:57.775Z,97708.16
2018-03-06T19:48:26.169Z,97709.63
2018-03-06T19:50:54.516Z,97710.55
2018-03-06T19:53:22.843Z,97712.90
2018-03-06T19:55:51.244Z,97714.97
2018-03-06T19:58:19.556Z,97712.19
2018-03-06T20:00:48.125Z,97712.22
2018-03-06T20:03:16.561Z,97708.52
2018-03-06T20:05:45.045Z,97712.06
2018-03-06T20:08:13.578Z,97710.69
2018-03-06T20:10:42.005Z,97709.78
2018-03-06T20:13:10.404Z,97713.50
2018-03-06T20:15:38.806Z,97711.91
2018-03-06T20:18:07.179Z,97708.20
2018-03-06T20:20:35.583Z,97705.77
2018-03-06T20:23:03.957Z,97713.48
2018-03-06T20:25:37.792Z,97714.58
2018-03-06T20:28:06.118Z,97710.80
2018-03-06T20:33:40.631Z,97709.50
2018-03-06T20:36:08.962Z,97709.06
2018-03-06T20:38:42.866Z,97709.58
2018-03-06T20:41:11.202Z,97711.19
2018-03-06T20:43:39.513Z,97711.81
2018-03-06T20:46:13.581Z,97707.23
2018-03-06T20:48:42.429Z,97710.44
2018-03-06T20:51:10.747Z,97709.63
2018-03-06T20:53:44.485Z,97705.22
2018-03-06T20:56:12.825Z,97708.91
2018-03-06T20:58:41.180Z,97700.92
2018-03-06T21:01:09.501Z,97701.61
2018-03-06T21:03:37.834Z,97701.10
2018-03-06T21:06:06.173Z,97697.12
2018-03-06T21:08:34.595Z,97696.84
2018-03-06T21:11:02.898Z,97697.39
2018-03-06T21:13:31.274Z,97695.53
2018-03-06T21:16:00.050Z,97697.44
2018-03-06T21:18:28.397Z,97698.85
2018-03-06T21:20:56.815Z,97693.52
2018-03-06T21:23:25.165Z,97688.34
2018-03-06T21:25:53.480Z,97689.51
2018-03-06T21:28:21.821Z,97689.78
2018-03-06T21:30:50.245Z,97686.12
2018-03-06T21:33:18.649Z,97688.09
2018-03-06T21:35:47.058Z,97683.33
2018-03-06T21:38:15.372Z,97683.72
2018-03-06T21:40:43.766Z,97682.19
2018-03-06T21:43:12.244Z,97679.88
2018-03-06T21:45:40.565Z,97682.52
2018-03-06T21:48:09.078Z,97677.03
2018-03-06T21:50:37.395Z,97674.72
2018-03-06T21:53:05.886Z,97681.47
2018-03-06T21:55:34.221Z,97675.66
2018-03-06T21:58:02.531Z,97677.16
2018-03-06T22:00:30.875Z,97673.11
2018-03-06T22:02:59.258Z,97670.98
2018-03-06T22:05:27.647Z,97673.23
2018-03-06T22:07:56.041Z,97674.58
2018-03-06T22:10:24.419Z,97673.34
2018-03-06T22:12:52.693Z,97674.94
2018-03-06T22:15:21.114Z,97677.97
2018-03-06T22:17:49.490Z,97676.92
2018-03-06T22:20:17.849Z,97669.63
2018-03-06T22:22:46.171Z,97671.94
2018-03-06T22:25:14.579Z,97671.94
2018-03-06T22:27:42.908Z,97668.34
2018-03-06T22:30:11.238Z,97671.19
2018-03-06T22:32:39.563Z,97672.74
2018-03-06T22:35:07.897Z,97677.91
2018-03-06T22:37:36.240Z,97671.19
2018-03-06T22:40:04.671Z,97670.20
2018-03-06T22:42:32.968Z,97676.02
2018-03-06T22:45:01.351Z,97679.88
2018-03-06T22:47:29.845Z,97678.06
2018-03-06T22:49:58.238Z,97685.73
2018-03-06T22:52:26.562Z,97682.86
2018-03-06T22:54:54.880Z,97682.98
2018-03-06T22:57:23.215Z,97685.08
2018-03-06T22:59:51.529Z,97686.81
2018-03-06T23:02:19.870Z,97678.66
2018-03-06T23:04:48.167Z,97682.22
2018-03-06T23:07:16.529Z,97678.23
2018-03-06T23:09:44.862Z,97683.98
2018-03-06T23:12:13.212Z,97680.96
2018-03-06T23:14:41.605Z,97683.03
2018-03-06T23:17:09.936Z,97680.81
2018-03-06T23:19:38.299Z,97683.63
2018-03-06T23:22:06.642Z,97685.45
2018-03-06T23:24:34.954Z,97684.26
2018-03-06T23:27:03.378Z,97685.43
2018-03-06T23:29:31.707Z,97687.41
2018-03-06T23:32:00.048Z,97689.30
2018-03-06T23:34:28.468Z,97686.92
2018-03-06T23:36:56.794Z,97691.57
2018-03-06T23:39:25.111Z,97692.35
2018-03-06T23:41:53.446Z,97689.80
2018-03-06T23:44:21.802Z,97687.56
2018-03-06T23:46:50.751Z,97688.05
2018-03-06T23:49:19.109Z,97690.55
2018-03-06T23:51:47.441Z,97693.31
2018-03-06T23:54:15.791Z,97692.65
2018-03-06T23:56:44.110Z,97695.05
2018-03-06T23:59:12.443Z,97696.63
